createdAt,value
2023-02-08T00:00:14.062Z,65.50
2023-02-08T00:03:02.560Z,63.40
2023-02-08T00:05:30.320Z,65.80
2023-02-08T00:07:58.054Z,68.00
2023-02-08T00:10:26.338Z,59.47
2023-02-08T00:12:53.977Z,66.83
2023-02-08T00:15:21.982Z,63.37
2023-02-08T00:17:49.943Z,67.83
2023-02-08T00:20:19.186Z,69.17
2023-02-08T00:22:47.751Z,60.20
2023-02-08T00:25:15.442Z,62.50
2023-02-08T00:27:43.225Z,68.83
2023-02-08T00:30:11.402Z,61.60
2023-02-08T00:32:39.333Z,60.63
2023-02-08T00:35:07.431Z,56.10
2023-02-08T00:37:36.438Z,59.93
2023-02-08T00:40:05.823Z,56.13
2023-02-08T00:42:34.302Z,67.47
2023-02-08T00:45:02.436Z,54.70
2023-02-08T00:47:30.065Z,54.33
2023-02-08T00:49:57.860Z,57.90
2023-02-08T00:52:26.123Z,57.13
2023-02-08T00:54:55.303Z,56.03
2023-02-08T00:57:23.037Z,60.93
2023-02-08T00:59:50.636Z,59.00
2023-02-08T01:02:18.817Z,61.50
2023-02-08T01:04:46.561Z,60.07
2023-02-08T01:07:14.231Z,66.10
2023-02-08T01:09:41.883Z,67.80
2023-02-08T01:12:11.502Z,73.80
2023-02-08T01:14:40.691Z,64.97
2023-02-08T01:17:08.823Z,64.80
2023-02-08T01:19:36.838Z,62.37
2023-02-08T01:22:04.531Z,56.37
2023-02-08T01:24:33.680Z,57.57
2023-02-08T01:27:03.426Z,56.67
2023-02-08T01:29:32.851Z,66.90
2023-02-08T01:32:00.650Z,56.93
2023-02-08T01:34:30.637Z,60.40
2023-02-08T01:36:58.270Z,53.77
2023-02-08T01:39:25.940Z,55.77
2023-02-08T01:41:53.612Z,65.20
2023-02-08T01:44:39.799Z,61.80
2023-02-08T01:47:08.847Z,62.90
2023-02-08T01:49:37.845Z,55.50
2023-02-08T01:52:07.212Z,56.20
2023-02-08T01:54:37.820Z,62.73
2023-02-08T01:57:05.926Z,59.23
2023-02-08T01:59:35.277Z,54.90
2023-02-08T02:02:03.905Z,58.97
2023-02-08T02:04:33.264Z,57.97
2023-02-08T02:07:01.771Z,66.70
2023-02-08T02:09:32.448Z,58.33
2023-02-08T02:12:01.106Z,59.37
2023-02-08T02:14:29.111Z,60.50
2023-02-08T02:16:56.733Z,58.07
2023-02-08T02:19:28.386Z,57.23
2023-02-08T02:22:05.112Z,49.87
2023-02-08T02:25:00.211Z,49.30
2023-02-08T02:27:33.668Z,50.33
2023-02-08T02:30:34.725Z,56.07
2023-02-08T02:33:19.991Z,52.67
2023-02-08T02:35:54.365Z,48.83
2023-02-08T02:38:29.570Z,49.83
2023-02-08T02:41:01.091Z,46.83
2023-02-08T02:43:42.042Z,44.50
2023-02-08T02:46:19.927Z,48.87
2023-02-08T02:48:51.476Z,50.60
2023-02-08T02:51:22.760Z,49.73
2023-02-08T02:53:55.526Z,41.43
2023-02-08T02:56:24.952Z,45.13
2023-02-08T02:58:54.024Z,46.53
2023-02-08T03:01:26.097Z,45.90
2023-02-08T03:03:54.416Z,43.77
2023-02-08T03:06:29.246Z,38.27
2023-02-08T03:09:12.991Z,39.30
2023-02-08T03:11:46.461Z,41.90
2023-02-08T03:14:24.870Z,47.67
2023-02-08T03:17:01.687Z,47.00
2023-02-08T03:19:36.283Z,49.73
2023-02-08T03:22:07.588Z,43.67
2023-02-08T03:24:40.805Z,46.07
2023-02-08T03:27:11.196Z,43.70
2023-02-08T03:29:44.933Z,43.50
2023-02-08T03:32:14.271Z,43.60
2023-02-08T03:34:45.529Z,40.93
2023-02-08T03:37:16.763Z,46.10
2023-02-08T03:39:45.535Z,39.97
2023-02-08T03:42:15.871Z,40.27
2023-02-08T03:44:45.333Z,42.00
2023-02-08T03:47:15.268Z,40.77
2023-02-08T03:49:44.747Z,46.87
2023-02-08T03:52:12.729Z,44.43
2023-02-08T03:54:44.078Z,38.90
2023-02-08T03:57:14.027Z,40.10
2023-02-08T03:59:43.004Z,37.17
2023-02-08T04:02:12.393Z,41.30
2023-02-08T04:04:42.190Z,35.63
2023-02-08T04:07:09.937Z,44.40
2023-02-08T04:09:38.915Z,41.07
2023-02-08T04:12:08.737Z,35.20
2023-02-08T04:14:36.399Z,40.47
2023-02-08T04:17:04.108Z,38.13
2023-02-08T04:19:32.290Z,35.83
2023-02-08T04:21:59.915Z,36.47
2023-02-08T04:24:28.207Z,35.53
2023-02-08T04:26:56.419Z,34.63
2023-02-08T04:29:25.461Z,39.43
2023-02-08T04:31:53.820Z,38.27
2023-02-08T04:34:22.600Z,39.83
2023-02-08T04:36:50.189Z,39.50
2023-02-08T04:39:17.866Z,36.80
2023-02-08T04:41:45.545Z,37.50
2023-02-08T04:44:14.799Z,37.00
2023-02-08T04:46:44.073Z,35.83
2023-02-08T04:49:11.777Z,43.10
2023-02-08T04:51:39.419Z,39.83
2023-02-08T04:54:09.288Z,40.33
2023-02-08T04:56:37.146Z,37.37
2023-02-08T04:59:04.860Z,38.90
2023-02-08T05:01:32.642Z,40.37
2023-02-08T05:04:02.433Z,40.07
2023-02-08T05:06:30.316Z,43.30
2023-02-08T05:08:58.965Z,38.10
2023-02-08T05:11:27.003Z,42.63
2023-02-08T05:13:54.642Z,40.33
2023-02-08T05:16:22.925Z,39.40
2023-02-08T05:18:50.712Z,39.63
2023-02-08T05:21:20.017Z,40.40
2023-02-08T05:23:47.848Z,39.60
2023-02-08T05:26:15.468Z,39.40
2023-02-08T05:28:43.588Z,41.43
2023-02-08T05:31:12.178Z,40.17
2023-02-08T05:33:39.901Z,40.63
2023-02-08T05:36:07.752Z,38.43
2023-02-08T05:38:36.780Z,42.93
2023-02-08T05:41:04.409Z,43.03
2023-02-08T05:43:32.258Z,46.00
2023-02-08T05:45:59.920Z,47.57
2023-02-08T05:48:27.913Z,42.93
2023-02-08T05:50:55.642Z,46.53
2023-02-08T05:53:23.445Z,43.30
2023-02-08T05:55:52.763Z,46.37
2023-02-08T05:58:20.467Z,40.40
2023-02-08T06:00:48.166Z,43.53
2023-02-08T06:03:15.915Z,43.40
2023-02-08T06:05:43.653Z,42.20
2023-02-08T06:08:11.451Z,44.50
2023-02-08T06:10:39.893Z,43.77
2023-02-08T06:13:09.233Z,41.30
2023-02-08T06:15:37.268Z,42.90
2023-02-08T06:18:05.360Z,41.87
2023-02-08T06:20:34.001Z,42.10
2023-02-08T06:23:03.361Z,45.90
2023-02-08T06:25:31.395Z,48.77
2023-02-08T06:27:59.244Z,46.17
2023-02-08T06:30:28.256Z,43.53
2023-02-08T06:32:56.268Z,44.10
2023-02-08T06:35:23.896Z,40.93
2023-02-08T06:37:51.684Z,43.73
2023-02-08T06:40:19.778Z,45.77
2023-02-08T06:42:47.852Z,47.67
2023-02-08T06:45:15.554Z,46.27
2023-02-08T06:47:46.372Z,48.60
2023-02-08T06:50:15.139Z,47.60
2023-02-08T06:52:42.813Z,53.63
2023-02-08T06:55:10.983Z,47.73
2023-02-08T06:57:38.634Z,43.07
2023-02-08T07:00:07.093Z,47.17
2023-02-08T07:02:34.848Z,52.73
2023-02-08T07:05:04.554Z,47.53
2023-02-08T07:07:32.346Z,47.57
2023-02-08T07:09:59.997Z,48.43
2023-02-08T07:12:28.207Z,44.47
2023-02-08T07:14:55.797Z,48.90
2023-02-08T07:17:23.471Z,53.47
2023-02-08T07:19:51.265Z,47.07
2023-02-08T07:22:20.344Z,45.97
2023-02-08T07:24:48.286Z,50.10
2023-02-08T07:27:16.011Z,46.20
2023-02-08T07:29:43.597Z,47.30
2023-02-08T07:32:11.443Z,46.47
2023-02-08T07:34:40.947Z,47.10
2023-02-08T07:37:08.968Z,47.77
2023-02-08T07:39:38.284Z,47.03
2023-02-08T07:42:07.092Z,50.33
2023-02-08T07:44:41.887Z,48.10
2023-02-08T07:47:09.547Z,44.60
2023-02-08T07:49:37.598Z,46.87
2023-02-08T07:52:05.364Z,48.00
2023-02-08T07:54:33.048Z,44.80
2023-02-08T07:57:03.687Z,44.70
2023-02-08T07:59:31.824Z,57.10
2023-02-08T08:01:59.498Z,59.77
2023-02-08T08:04:27.553Z,45.73
2023-02-08T08:06:55.209Z,44.80
2023-02-08T08:09:24.271Z,47.90
2023-02-08T08:11:51.978Z,54.80
2023-02-08T08:14:21.764Z,46.13
2023-02-08T08:16:49.911Z,48.13
2023-02-08T08:19:17.532Z,47.80
2023-02-08T08:21:45.262Z,48.80
2023-02-08T08:24:13.254Z,46.60
2023-02-08T08:26:40.972Z,50.77
2023-02-08T08:29:08.605Z,46.30
2023-02-08T08:31:38.979Z,49.17
2023-02-08T08:34:07.038Z,45.20
2023-02-08T08:36:57.337Z,52.13
2023-02-08T08:39:25.306Z,48.73
2023-02-08T08:41:52.971Z,47.93
2023-02-08T08:44:20.872Z,44.00
2023-02-08T08:46:49.946Z,48.97
2023-02-08T08:49:18.071Z,47.80
2023-02-08T08:51:45.709Z,54.23
2023-02-08T08:54:13.449Z,52.70
2023-02-08T08:56:41.637Z,47.50
2023-02-08T08:59:09.495Z,48.40
2023-02-08T09:01:37.190Z,48.70
2023-02-08T09:04:06.899Z,45.73
2023-02-08T09:06:34.947Z,49.67
2023-02-08T09:09:02.587Z,53.33
2023-02-08T09:11:30.533Z,52.43
2023-02-08T09:13:58.213Z,52.70
2023-02-08T09:16:26.527Z,60.43
2023-02-08T09:18:54.412Z,57.23
2023-02-08T09:21:25.249Z,57.70
2023-02-08T09:23:53.000Z,57.40
2023-02-08T09:26:21.474Z,52.57
2023-02-08T09:28:49.214Z,52.47
2023-02-08T09:31:20.086Z,56.30
2023-02-08T09:33:49.215Z,52.90
2023-02-08T09:36:17.209Z,56.23
2023-02-08T09:38:46.959Z,47.63
2023-02-08T09:41:24.548Z,52.27
2023-02-08T09:43:55.494Z,56.10
2023-02-08T09:46:27.833Z,59.23
2023-02-08T09:48:57.216Z,59.13
2023-02-08T09:51:27.567Z,51.00
2023-02-08T09:53:59.732Z,55.83
2023-02-08T09:56:29.659Z,52.43
2023-02-08T09:58:58.190Z,60.63
2023-02-08T10:01:26.902Z,57.07
2023-02-08T10:03:57.064Z,58.43
2023-02-08T10:06:25.088Z,59.07
2023-02-08T10:08:53.897Z,57.17
2023-02-08T10:11:35.635Z,57.60
2023-02-08T10:14:21.533Z,58.40
2023-02-08T10:16:58.302Z,55.40
2023-02-08T10:19:30.122Z,58.47
2023-02-08T10:22:06.025Z,60.13
2023-02-08T10:24:49.746Z,57.30
2023-02-08T10:27:20.730Z,59.60
2023-02-08T10:30:03.880Z,56.03
2023-02-08T10:32:35.705Z,53.97
2023-02-08T10:35:05.946Z,56.70
2023-02-08T10:37:35.496Z,58.43
2023-02-08T10:40:09.819Z,57.40
2023-02-08T10:42:38.993Z,57.07
2023-02-08T10:45:23.863Z,55.57
2023-02-08T10:47:54.289Z,52.93
2023-02-08T10:50:24.721Z,58.53
2023-02-08T10:52:52.480Z,58.63
2023-02-08T10:55:21.527Z,58.17
2023-02-08T10:57:52.525Z,55.10
2023-02-08T11:00:21.168Z,55.90
2023-02-08T11:02:52.807Z,55.73
2023-02-08T11:05:23.273Z,56.93
2023-02-08T11:08:05.661Z,60.67
2023-02-08T11:10:33.510Z,54.07
2023-02-08T11:13:05.680Z,53.67
2023-02-08T11:15:37.961Z,51.80
2023-02-08T11:18:07.328Z,53.40
2023-02-08T11:20:37.591Z,52.23
2023-02-08T11:23:05.960Z,56.80
2023-02-08T11:25:38.132Z,56.07
2023-02-08T11:28:22.188Z,55.17
2023-02-08T11:30:56.187Z,60.07
2023-02-08T11:33:25.624Z,52.13
2023-02-08T11:36:04.071Z,58.03
2023-02-08T11:38:32.502Z,54.87
2023-02-08T11:41:01.567Z,50.00
2023-02-08T11:43:32.147Z,53.50
2023-02-08T11:46:00.625Z,54.97
2023-02-08T11:48:33.878Z,57.57
2023-02-08T11:51:02.426Z,56.77
2023-02-08T11:53:33.411Z,53.80
2023-02-08T11:56:03.739Z,49.60
2023-02-08T11:58:33.359Z,52.43
2023-02-08T12:01:01.946Z,55.30
2023-02-08T12:03:33.624Z,54.53
2023-02-08T12:06:12.191Z,65.70
2023-02-08T12:08:43.703Z,50.70
2023-02-08T12:11:15.859Z,57.07
2023-02-08T12:13:57.888Z,54.27
2023-02-08T12:16:36.885Z,52.57
2023-02-08T12:19:23.333Z,50.30
2023-02-08T12:21:55.151Z,55.40
2023-02-08T12:24:27.254Z,52.67
2023-02-08T12:27:04.670Z,54.97
2023-02-08T12:29:47.751Z,53.90
2023-02-08T12:32:31.785Z,53.33
2023-02-08T12:35:11.006Z,54.00
2023-02-08T12:38:01.559Z,51.93
2023-02-08T12:40:53.879Z,55.30
2023-02-08T12:43:26.856Z,51.60
2023-02-08T12:46:00.846Z,51.60
2023-02-08T12:48:36.893Z,49.40
2023-02-08T12:51:09.282Z,50.87
2023-02-08T12:53:40.034Z,52.20
2023-02-08T12:56:09.035Z,48.90
2023-02-08T12:58:40.057Z,60.37
2023-02-08T13:01:11.246Z,48.53
2023-02-08T13:03:43.272Z,50.80
2023-02-08T13:06:14.768Z,51.70
2023-02-08T13:08:47.659Z,49.00
2023-02-08T13:11:20.440Z,53.10
2023-02-08T13:13:57.814Z,52.23
2023-02-08T13:16:29.431Z,50.53
2023-02-08T13:19:08.446Z,52.00
2023-02-08T13:21:41.866Z,58.13
2023-02-08T13:24:17.728Z,53.20
2023-02-08T13:26:46.514Z,50.20
2023-02-08T13:29:18.756Z,49.47
2023-02-08T13:31:49.722Z,53.17
2023-02-08T13:34:19.913Z,47.10
2023-02-08T13:36:51.444Z,49.53
2023-02-08T13:39:31.828Z,50.63
2023-02-08T13:41:59.625Z,50.53
2023-02-08T13:44:30.445Z,52.87
2023-02-08T13:46:59.873Z,49.63
2023-02-08T13:49:43.962Z,52.60
2023-02-08T13:52:12.472Z,53.37
2023-02-08T13:54:40.512Z,46.07
2023-02-08T13:57:23.680Z,54.17
2023-02-08T14:00:16.166Z,52.13
2023-02-08T14:02:58.961Z,50.50
2023-02-08T14:05:44.090Z,47.53
2023-02-08T14:08:19.527Z,49.73
2023-02-08T14:10:50.378Z,53.80
2023-02-08T14:13:26.485Z,58.77
2023-02-08T14:16:09.130Z,49.80
2023-02-08T14:18:38.253Z,47.73
2023-02-08T14:21:07.189Z,68.73
2023-02-08T14:23:40.199Z,45.20
2023-02-08T14:26:10.142Z,45.37
2023-02-08T14:28:40.847Z,45.23
2023-02-08T14:31:09.826Z,47.67
2023-02-08T14:33:41.515Z,48.07
2023-02-08T14:36:20.396Z,49.43
2023-02-08T14:38:52.958Z,47.30
2023-02-08T14:41:39.341Z,47.40
2023-02-08T14:44:22.345Z,50.93
2023-02-08T14:46:50.078Z,47.17
2023-02-08T14:49:20.125Z,46.20
2023-02-08T14:51:50.609Z,46.63
2023-02-08T14:54:20.520Z,48.47
2023-02-08T14:56:52.865Z,53.03
2023-02-08T14:59:22.085Z,53.97
2023-02-08T15:01:53.476Z,48.77
2023-02-08T15:04:22.625Z,48.50
2023-02-08T15:07:07.390Z,46.03
2023-02-08T15:09:38.456Z,43.37
2023-02-08T15:12:08.761Z,53.17
2023-02-08T15:14:37.299Z,48.83
2023-02-08T15:17:05.083Z,46.10
2023-02-08T15:19:35.626Z,40.80
2023-02-08T15:22:18.155Z,48.30
2023-02-08T15:24:52.894Z,44.43
2023-02-08T15:27:21.397Z,46.03
2023-02-08T15:29:49.233Z,46.80
2023-02-08T15:32:18.791Z,53.20
2023-02-08T15:34:49.605Z,46.27
2023-02-08T15:37:18.425Z,46.80
2023-02-08T15:39:47.028Z,47.00
2023-02-08T15:42:17.117Z,45.20
2023-02-08T15:44:45.141Z,48.77
2023-02-08T15:47:17.173Z,43.53
2023-02-08T15:49:46.768Z,48.00
2023-02-08T15:52:18.000Z,41.73
2023-02-08T15:54:46.601Z,45.60
2023-02-08T15:57:21.649Z,47.23
2023-02-08T15:59:50.204Z,40.20
2023-02-08T16:02:22.876Z,41.03
2023-02-08T16:04:51.069Z,49.07
2023-02-08T16:07:23.709Z,46.93
2023-02-08T16:09:51.425Z,42.50
2023-02-08T16:12:21.520Z,44.80
2023-02-08T16:14:52.787Z,42.57
2023-02-08T16:17:36.900Z,45.43
2023-02-08T16:20:05.158Z,48.07
2023-02-08T16:22:34.649Z,58.23
2023-02-08T16:25:21.552Z,44.40
2023-02-08T16:27:49.309Z,46.27
2023-02-08T16:30:19.407Z,46.30
2023-02-08T16:32:47.364Z,46.30
2023-02-08T16:35:15.621Z,44.67
2023-02-08T16:37:45.025Z,47.50
2023-02-08T16:40:40.017Z,53.97
2023-02-08T16:43:26.100Z,49.60
2023-02-08T16:46:12.667Z,47.33
2023-02-08T16:48:42.915Z,45.80
2023-02-08T16:51:14.546Z,47.20
2023-02-08T16:53:50.014Z,50.23
2023-02-08T16:56:17.790Z,52.50
2023-02-08T16:58:45.494Z,52.00
2023-02-08T17:01:14.363Z,46.43
2023-02-08T17:03:42.256Z,51.33
2023-02-08T17:06:19.388Z,48.83
2023-02-08T17:08:48.660Z,53.73
2023-02-08T17:11:16.546Z,53.93
2023-02-08T17:13:44.213Z,55.93
2023-02-08T17:16:18.149Z,51.90
2023-02-08T17:18:46.328Z,52.40
2023-02-08T17:21:14.143Z,51.00
2023-02-08T17:23:42.285Z,48.23
2023-02-08T17:26:14.561Z,48.37
2023-02-08T17:28:42.362Z,52.43
2023-02-08T17:31:11.429Z,51.77
2023-02-08T17:33:40.367Z,51.37
2023-02-08T17:36:09.109Z,47.03
2023-02-08T17:38:39.107Z,48.80
2023-02-08T17:41:07.605Z,49.97
2023-02-08T17:43:37.209Z,49.40
2023-02-08T17:46:09.317Z,49.40
2023-02-08T17:48:37.064Z,52.37
2023-02-08T17:51:08.839Z,51.30
2023-02-08T17:53:40.608Z,50.47
2023-02-08T17:56:09.782Z,49.93
2023-02-08T17:58:38.797Z,49.47
2023-02-08T18:01:07.031Z,48.90
2023-02-08T18:03:35.471Z,52.93
2023-02-08T18:06:06.148Z,53.10
2023-02-08T18:08:37.053Z,53.20
2023-02-08T18:11:05.679Z,53.60
2023-02-08T18:13:33.428Z,53.10
2023-02-08T18:16:08.698Z,52.80
2023-02-08T18:18:36.436Z,48.93
2023-02-08T18:21:09.199Z,54.87
2023-02-08T18:23:36.880Z,50.23
2023-02-08T18:26:06.105Z,52.50
2023-02-08T18:28:34.665Z,52.00
2023-02-08T18:31:03.200Z,56.33
2023-02-08T18:33:35.093Z,51.57
2023-02-08T18:36:02.963Z,52.67
2023-02-08T18:38:30.840Z,53.50
2023-02-08T18:40:59.071Z,55.40
2023-02-08T18:43:27.425Z,57.87
2023-02-08T18:45:59.989Z,49.90
2023-02-08T18:48:27.690Z,44.50
2023-02-08T18:50:57.791Z,46.80
2023-02-08T18:53:27.179Z,45.00
2023-02-08T18:55:55.426Z,46.67
2023-02-08T18:58:23.371Z,47.30
2023-02-08T19:00:51.799Z,46.20
2023-02-08T19:03:19.955Z,45.20
2023-02-08T19:05:48.129Z,47.27
2023-02-08T19:08:17.603Z,45.13
2023-02-08T19:10:45.269Z,45.87
2023-02-08T19:13:13.149Z,47.30
2023-02-08T19:15:41.693Z,50.50
2023-02-08T19:18:09.600Z,48.80
2023-02-08T19:20:38.236Z,47.23
2023-02-08T19:23:06.687Z,45.60
2023-02-08T19:25:38.536Z,52.93
2023-02-08T19:28:06.651Z,51.27
2023-02-08T19:30:36.293Z,53.10
2023-02-08T19:33:04.301Z,47.60
2023-02-08T19:35:32.216Z,45.60
2023-02-08T19:37:59.940Z,45.33
2023-02-08T19:40:27.580Z,47.50
2023-02-08T19:42:57.150Z,51.43
2023-02-08T19:45:25.414Z,48.97
2023-02-08T19:47:54.873Z,45.20
2023-02-08T19:50:22.852Z,48.00
2023-02-08T19:52:50.614Z,44.13
2023-02-08T19:55:18.496Z,50.50
2023-02-08T19:57:46.239Z,44.97
2023-02-08T20:00:23.408Z,45.17
2023-02-08T20:02:52.236Z,45.53
2023-02-08T20:05:19.947Z,54.10
2023-02-08T20:07:47.670Z,51.07
2023-02-08T20:10:15.416Z,46.67
2023-02-08T20:12:43.088Z,43.57
2023-02-08T20:15:10.856Z,46.87
2023-02-08T20:17:39.940Z,43.40
2023-02-08T20:20:08.408Z,44.83
2023-02-08T20:22:36.442Z,48.17
2023-02-08T20:25:04.950Z,47.00
2023-02-08T20:27:32.761Z,43.13
2023-02-08T20:30:00.717Z,45.53
2023-02-08T20:32:28.806Z,43.60
2023-02-08T20:34:59.679Z,43.80
2023-02-08T20:37:28.204Z,42.13
2023-02-08T20:39:55.881Z,44.13
2023-02-08T20:42:23.868Z,40.10
2023-02-08T20:44:51.993Z,42.00
2023-02-08T20:47:21.757Z,38.00
2023-02-08T20:49:49.610Z,41.20
2023-02-08T20:52:19.895Z,42.20
2023-02-08T20:54:47.799Z,39.23
2023-02-08T20:57:18.125Z,38.23
2023-02-08T20:59:46.505Z,40.57
2023-02-08T21:02:17.294Z,41.70
2023-02-08T21:04:45.077Z,41.03
2023-02-08T21:07:13.059Z,39.07
2023-02-08T21:09:42.200Z,38.10
2023-02-08T21:12:10.068Z,41.80
2023-02-08T21:14:38.179Z,46.57
2023-02-08T21:17:08.828Z,38.10
2023-02-08T21:19:37.329Z,41.30
2023-02-08T21:22:05.142Z,37.67
2023-02-08T21:24:32.940Z,39.83
2023-02-08T21:27:02.104Z,41.87
2023-02-08T21:29:32.740Z,42.83
2023-02-08T21:32:00.773Z,36.77
2023-02-08T21:34:29.356Z,39.20
2023-02-08T21:36:57.397Z,41.10
2023-02-08T21:39:25.293Z,43.53
2023-02-08T21:41:55.387Z,40.10
2023-02-08T21:44:25.053Z,40.07
2023-02-08T21:46:52.898Z,36.33
2023-02-08T21:49:38.304Z,39.80
2023-02-08T21:52:23.971Z,37.67
2023-02-08T21:54:53.680Z,40.07
2023-02-08T21:57:22.842Z,34.87
2023-02-08T21:59:53.038Z,34.40
2023-02-08T22:02:23.349Z,36.53
2023-02-08T22:05:09.093Z,33.73
2023-02-08T22:07:44.498Z,33.40
2023-02-08T22:10:13.388Z,33.03
2023-02-08T22:12:41.856Z,36.23
2023-02-08T22:15:12.814Z,34.10
2023-02-08T22:17:40.629Z,33.03
2023-02-08T22:20:08.596Z,34.80
2023-02-08T22:22:36.882Z,38.13
2023-02-08T22:25:04.741Z,33.50
2023-02-08T22:27:32.820Z,35.03
2023-02-08T22:30:00.803Z,39.73
2023-02-08T22:32:29.947Z,35.80
2023-02-08T22:34:57.937Z,34.43
2023-02-08T22:37:25.670Z,32.70
2023-02-08T22:39:53.382Z,33.00
2023-02-08T22:42:21.120Z,27.87
2023-02-08T22:44:48.912Z,31.70
2023-02-08T22:47:17.166Z,31.63
2023-02-08T22:49:46.595Z,35.53
2023-02-08T22:52:14.504Z,37.33
2023-02-08T22:54:43.454Z,30.60
2023-02-08T22:57:11.945Z,33.33
2023-02-08T22:59:40.124Z,31.07
2023-02-08T23:02:07.802Z,31.63
2023-02-08T23:04:35.673Z,31.87
2023-02-08T23:07:05.528Z,30.97
2023-02-08T23:09:34.285Z,32.60
2023-02-08T23:12:02.045Z,33.07
2023-02-08T23:14:30.162Z,35.83
2023-02-08T23:16:57.817Z,31.70
2023-02-08T23:19:26.474Z,34.23
2023-02-08T23:21:54.267Z,30.23
2023-02-08T23:24:23.765Z,30.07
2023-02-08T23:26:51.948Z,31.53
2023-02-08T23:29:19.618Z,28.97
2023-02-08T23:31:47.552Z,29.00
2023-02-08T23:34:15.469Z,27.67
2023-02-08T23:36:43.329Z,33.00
2023-02-08T23:39:11.701Z,30.03
2023-02-08T23:41:41.030Z,29.07
2023-02-08T23:44:08.799Z,30.57
2023-02-08T23:46:36.497Z,34.40
2023-02-08T23:49:04.396Z,29.07
2023-02-08T23:51:32.220Z,34.40
2023-02-08T23:54:00.106Z,31.60
2023-02-08T23:56:29.367Z,30.87
2023-02-08T23:58:59.249Z,30.30
